createdAt,value
2017-11-05T00:00:57.617Z,44.10
2017-11-05T00:03:29.419Z,40.72
2017-11-05T00:06:04.174Z,43.15
2017-11-05T00:08:36.746Z,42.45
2017-11-05T00:11:06.859Z,44.05
2017-11-05T00:13:41.391Z,44.33
2017-11-05T00:16:11.774Z,44.17
2017-11-05T00:18:43.440Z,44.30
2017-11-05T00:21:14.831Z,42.42
2017-11-05T00:23:45.103Z,44.08
2017-11-05T00:26:12.720Z,43.80
2017-11-05T00:28:40.288Z,40.60
2017-11-05T00:31:07.861Z,42.65
2017-11-05T00:33:36.264Z,42.90
2017-11-05T00:36:03.840Z,42.50
2017-11-05T00:38:31.412Z,41.60
2017-11-05T00:40:59.027Z,42.30
2017-11-05T00:43:26.630Z,41.75
2017-11-05T00:45:54.234Z,42.97
2017-11-05T00:48:21.859Z,42.38
2017-11-05T00:50:49.465Z,43.70
2017-11-05T00:53:17.035Z,42.35
2017-11-05T00:55:44.648Z,41.17
2017-11-05T00:58:12.258Z,41.85
2017-11-05T01:00:39.878Z,41.67
2017-11-05T01:03:07.448Z,41.15
2017-11-05T01:05:35.016Z,39.22
2017-11-05T01:08:02.622Z,40.90
2017-11-05T01:10:30.229Z,41.25
2017-11-05T01:12:57.841Z,42.62
2017-11-05T01:15:25.450Z,41.15
2017-11-05T01:17:53.066Z,42.75
2017-11-05T01:20:20.672Z,41.30
2017-11-05T01:22:48.246Z,42.33
2017-11-05T01:25:15.862Z,43.25
2017-11-05T01:27:43.470Z,41.92
2017-11-05T01:30:11.074Z,41.42
2017-11-05T01:32:38.682Z,40.10
2017-11-05T01:35:06.364Z,40.15
2017-11-05T01:37:34.748Z,39.13
2017-11-05T01:40:03.151Z,39.35
2017-11-05T01:42:30.761Z,38.47
2017-11-05T01:44:58.379Z,39.72
2017-11-05T01:47:25.953Z,37.70
2017-11-05T01:49:53.562Z,39.42
2017-11-05T01:52:21.942Z,40.60
2017-11-05T01:54:50.318Z,38.90
2017-11-05T01:57:18.698Z,39.53
2017-11-05T01:59:47.074Z,38.70
2017-11-05T02:02:15.483Z,39.22
2017-11-05T02:04:43.091Z,41.78
2017-11-05T02:07:10.722Z,38.25
2017-11-05T02:09:38.439Z,38.72
2017-11-05T02:12:06.789Z,38.63
2017-11-05T02:14:34.451Z,37.55
2017-11-05T02:17:02.054Z,38.08
2017-11-05T02:19:30.458Z,36.88
2017-11-05T02:21:58.131Z,39.75
2017-11-05T02:24:25.742Z,38.60
2017-11-05T02:26:53.332Z,39.60
2017-11-05T02:29:20.962Z,37.92
2017-11-05T02:31:48.607Z,38.55
2017-11-05T02:34:16.241Z,37.80
2017-11-05T02:36:43.923Z,41.08
2017-11-05T02:39:11.542Z,38.53
2017-11-05T02:41:39.162Z,38.17
2017-11-05T02:44:06.790Z,39.72
2017-11-05T02:46:34.376Z,39.65
2017-11-05T02:49:01.996Z,40.03
2017-11-05T02:51:29.622Z,36.75
2017-11-05T02:53:57.255Z,37.95
2017-11-05T02:56:24.971Z,36.35
2017-11-05T02:58:52.568Z,39.00
2017-11-05T03:01:20.198Z,35.08
2017-11-05T03:03:47.817Z,33.78
2017-11-05T03:06:15.412Z,32.88
2017-11-05T03:08:43.061Z,33.85
2017-11-05T03:11:10.675Z,33.42
2017-11-05T03:13:38.294Z,34.83
2017-11-05T03:16:05.925Z,32.65
2017-11-05T03:18:33.572Z,32.97
2017-11-05T03:21:01.186Z,33.33
2017-11-05T03:23:28.838Z,30.00
2017-11-05T03:25:57.563Z,31.52
2017-11-05T03:28:25.206Z,33.45
2017-11-05T03:30:55.641Z,31.25
2017-11-05T03:33:23.708Z,29.98
2017-11-05T03:35:51.441Z,30.27
2017-11-05T03:38:20.080Z,29.67
2017-11-05T03:40:47.753Z,27.92
2017-11-05T03:43:15.380Z,27.83
2017-11-05T03:45:43.007Z,26.98
2017-11-05T03:48:10.680Z,26.80
2017-11-05T03:50:38.331Z,27.42
2017-11-05T03:53:12.356Z,25.62
2017-11-05T03:55:39.998Z,25.40
2017-11-05T03:58:09.719Z,25.80
2017-11-05T04:00:39.543Z,26.55
2017-11-05T04:03:07.210Z,24.12
2017-11-05T04:05:34.816Z,25.50
2017-11-05T04:08:02.455Z,25.90
2017-11-05T04:10:30.082Z,25.05
2017-11-05T04:12:57.705Z,26.45
2017-11-05T04:15:25.349Z,25.60
2017-11-05T04:17:52.974Z,24.92
2017-11-05T04:20:20.598Z,25.30
2017-11-05T04:22:48.238Z,25.10
2017-11-05T04:25:15.869Z,25.67
2017-11-05T04:27:43.496Z,23.98
2017-11-05T04:30:11.138Z,23.70
2017-11-05T04:32:38.763Z,23.55
2017-11-05T04:35:06.407Z,24.77
2017-11-05T04:37:34.059Z,24.35
2017-11-05T04:40:01.680Z,25.08
2017-11-05T04:42:29.311Z,23.15
2017-11-05T04:44:56.947Z,25.15
2017-11-05T04:47:24.584Z,24.12
2017-11-05T04:49:52.238Z,25.17
2017-11-05T04:52:19.914Z,24.50
2017-11-05T04:54:47.558Z,24.87
2017-11-05T04:57:15.194Z,24.12
2017-11-05T04:59:42.818Z,23.27
2017-11-05T05:02:10.607Z,23.87
2017-11-05T05:04:38.218Z,25.98
2017-11-05T05:07:05.805Z,24.70
2017-11-05T05:09:33.407Z,25.08
2017-11-05T05:12:01.026Z,23.35
2017-11-05T05:14:29.421Z,23.60
2017-11-05T05:16:57.165Z,24.52
2017-11-05T05:19:25.550Z,24.50
2017-11-05T05:21:53.147Z,24.80
2017-11-05T05:24:20.827Z,25.08
2017-11-05T05:26:48.475Z,23.92
2017-11-05T05:29:16.094Z,23.77
2017-11-05T05:31:43.706Z,23.52
2017-11-05T05:34:11.339Z,25.75
2017-11-05T05:36:38.958Z,25.88
2017-11-05T05:39:06.540Z,27.92
2017-11-05T05:41:34.175Z,25.67
2017-11-05T05:44:01.761Z,26.30
2017-11-05T05:46:29.346Z,26.92
2017-11-05T05:48:56.971Z,26.87
2017-11-05T05:51:24.568Z,27.08
2017-11-05T05:53:52.190Z,26.50
2017-11-05T05:56:19.826Z,26.42
2017-11-05T05:58:47.516Z,26.67
2017-11-05T06:01:15.173Z,26.90
2017-11-05T06:03:42.794Z,27.98
2017-11-05T06:06:10.431Z,28.15
2017-11-05T06:08:38.059Z,27.13
2017-11-05T06:11:13.037Z,28.60
2017-11-05T06:13:40.654Z,28.20
2017-11-05T06:16:09.063Z,27.98
2017-11-05T06:18:36.661Z,29.17
2017-11-05T06:21:04.286Z,28.70
2017-11-05T06:23:31.900Z,28.77
2017-11-05T06:25:59.535Z,27.60
2017-11-05T06:28:27.200Z,28.67
2017-11-05T06:30:54.795Z,30.45
2017-11-05T06:33:22.379Z,29.08
2017-11-05T06:35:50.073Z,30.17
2017-11-05T06:38:17.683Z,28.83
2017-11-05T06:40:46.073Z,28.50
2017-11-05T06:43:14.479Z,28.58
2017-11-05T06:45:42.123Z,29.80
2017-11-05T06:48:09.751Z,29.15
2017-11-05T06:50:37.383Z,30.02
2017-11-05T06:53:05.001Z,28.45
2017-11-05T06:55:32.662Z,31.00
2017-11-05T06:58:01.039Z,29.73
2017-11-05T07:00:29.432Z,31.10
2017-11-05T07:02:57.058Z,31.75
2017-11-05T07:05:24.672Z,31.25
2017-11-05T07:07:52.319Z,30.17
2017-11-05T07:10:19.919Z,30.67
2017-11-05T07:12:47.546Z,31.92
2017-11-05T07:15:15.130Z,31.77
2017-11-05T07:17:42.750Z,30.35
2017-11-05T07:20:10.362Z,31.25
2017-11-05T07:22:38.254Z,33.08
2017-11-05T07:25:05.882Z,32.00
2017-11-05T07:27:33.506Z,32.47
2017-11-05T07:30:01.099Z,32.78
2017-11-05T07:32:28.742Z,33.55
2017-11-05T07:34:56.374Z,32.20
2017-11-05T07:37:24.771Z,34.28
2017-11-05T07:39:52.391Z,32.00
2017-11-05T07:42:19.995Z,32.70
2017-11-05T07:44:47.596Z,33.13
2017-11-05T07:47:15.215Z,32.30
2017-11-05T07:49:42.863Z,34.72
2017-11-05T07:52:11.242Z,30.35
2017-11-05T07:54:39.655Z,28.70
2017-11-05T07:57:07.282Z,31.92
2017-11-05T07:59:35.161Z,30.23
2017-11-05T08:02:03.547Z,31.10
2017-11-05T08:04:31.186Z,30.60
2017-11-05T08:06:58.806Z,32.38
2017-11-05T08:09:26.451Z,33.72
2017-11-05T08:11:54.074Z,31.70
2017-11-05T08:14:21.696Z,31.23
2017-11-05T08:16:49.318Z,33.53
2017-11-05T08:19:16.929Z,34.80
2017-11-05T08:21:44.523Z,32.67
2017-11-05T08:24:12.177Z,33.17
2017-11-05T08:26:41.579Z,33.85
2017-11-05T08:29:09.198Z,37.63
2017-11-05T08:31:37.010Z,36.75
2017-11-05T08:34:05.414Z,40.08
2017-11-05T08:36:33.139Z,32.78
2017-11-05T08:39:00.742Z,34.80
2017-11-05T08:41:28.378Z,40.45
2017-11-05T08:43:56.759Z,49.83
2017-11-05T08:46:25.190Z,58.22
2017-11-05T08:48:52.802Z,64.60
2017-11-05T08:51:20.416Z,46.50
2017-11-05T08:53:48.031Z,53.67
2017-11-05T08:56:15.699Z,56.88
2017-11-05T08:58:43.336Z,44.22
2017-11-05T09:01:11.721Z,64.20
2017-11-05T09:03:40.112Z,53.78
2017-11-05T09:06:08.475Z,42.33
2017-11-05T09:08:36.851Z,50.67
2017-11-05T09:11:04.458Z,41.33
2017-11-05T09:13:32.111Z,44.03
2017-11-05T09:15:59.735Z,35.90
2017-11-05T09:18:28.109Z,34.15
2017-11-05T09:20:55.744Z,34.47
2017-11-05T09:23:23.336Z,35.85
2017-11-05T09:25:50.940Z,33.67
2017-11-05T09:28:18.550Z,33.40
2017-11-05T09:30:46.158Z,33.67
2017-11-05T09:33:13.792Z,32.63
2017-11-05T09:35:41.417Z,32.92
2017-11-05T09:38:09.048Z,32.60
2017-11-05T09:40:36.655Z,32.60
2017-11-05T09:43:04.270Z,32.40
2017-11-05T09:45:31.887Z,33.33
2017-11-05T09:48:00.301Z,31.95
2017-11-05T09:50:27.914Z,32.50
2017-11-05T09:52:55.532Z,31.25
2017-11-05T09:55:23.153Z,32.65
2017-11-05T09:57:51.498Z,31.20
2017-11-05T10:00:19.260Z,33.13
2017-11-05T10:02:46.869Z,34.08
2017-11-05T10:05:15.200Z,38.55
2017-11-05T10:07:42.900Z,33.08
2017-11-05T10:10:11.279Z,34.03
2017-11-05T10:12:39.624Z,37.95
2017-11-05T10:15:08.451Z,41.28
2017-11-05T10:17:36.946Z,35.33
2017-11-05T10:20:04.562Z,42.30
2017-11-05T10:22:32.132Z,37.72
2017-11-05T10:24:59.762Z,66.03
2017-11-05T10:27:27.379Z,70.65
2017-11-05T10:29:54.997Z,92.20
2017-11-05T10:32:22.650Z,34.10
2017-11-05T10:34:50.258Z,68.90
2017-11-05T10:37:17.972Z,33.25
2017-11-05T10:39:45.547Z,32.22
2017-11-05T10:42:13.156Z,32.80
2017-11-05T10:44:41.666Z,32.05
2017-11-05T10:47:09.282Z,33.72
2017-11-05T10:49:37.723Z,34.03
2017-11-05T10:52:05.295Z,32.90
2017-11-05T10:54:32.867Z,34.33
2017-11-05T10:57:00.486Z,35.97
2017-11-05T10:59:28.103Z,34.75
2017-11-05T11:01:56.711Z,33.55
2017-11-05T11:04:24.338Z,32.08
2017-11-05T11:06:52.095Z,33.42
2017-11-05T11:09:19.775Z,35.80
2017-11-05T11:11:47.388Z,33.90
2017-11-05T11:14:15.073Z,35.88
2017-11-05T11:16:50.099Z,35.50
2017-11-05T11:19:17.754Z,35.88
2017-11-05T11:21:46.186Z,36.97
2017-11-05T11:24:13.798Z,33.90
2017-11-05T11:26:41.414Z,34.38
2017-11-05T11:29:09.028Z,36.10
2017-11-05T11:31:36.786Z,36.03
2017-11-05T11:34:04.362Z,35.72
2017-11-05T11:36:31.975Z,34.70
2017-11-05T11:38:59.584Z,34.22
2017-11-05T11:41:27.198Z,33.47
2017-11-05T11:43:54.806Z,37.20
2017-11-05T11:46:22.410Z,36.38
2017-11-05T11:48:50.018Z,34.33
2017-11-05T11:51:17.622Z,36.25
2017-11-05T11:53:45.961Z,37.13
2017-11-05T11:56:13.530Z,36.47
2017-11-05T11:58:41.206Z,36.30
2017-11-05T12:01:08.832Z,34.90
2017-11-05T12:03:36.487Z,37.25
2017-11-05T12:06:04.110Z,36.70
2017-11-05T12:08:31.722Z,35.17
2017-11-05T12:10:59.388Z,36.65
2017-11-05T12:13:26.956Z,34.90
2017-11-05T12:15:54.635Z,37.45
2017-11-05T12:18:22.245Z,36.10
2017-11-05T12:20:49.859Z,36.97
2017-11-05T12:23:17.466Z,37.35
2017-11-05T12:25:45.070Z,35.97
2017-11-05T12:28:12.647Z,38.95
2017-11-05T12:30:40.310Z,36.70
2017-11-05T12:33:08.123Z,36.90
2017-11-05T12:35:35.741Z,37.45
2017-11-05T12:38:04.083Z,38.00
2017-11-05T12:40:31.736Z,36.85
2017-11-05T12:42:59.305Z,37.92
2017-11-05T12:45:26.910Z,38.28
2017-11-05T12:47:55.310Z,37.33
2017-11-05T12:50:22.925Z,40.10
2017-11-05T12:52:50.571Z,38.90
2017-11-05T12:55:18.178Z,40.20
2017-11-05T12:57:45.790Z,37.88
2017-11-05T13:00:13.489Z,38.95
2017-11-05T13:02:41.922Z,38.35
2017-11-05T13:05:09.526Z,38.75
2017-11-05T13:07:37.218Z,35.22
2017-11-05T13:10:04.836Z,37.35
2017-11-05T13:12:32.613Z,37.05
2017-11-05T13:15:00.287Z,33.92
2017-11-05T13:17:27.896Z,36.25
2017-11-05T13:19:55.467Z,37.25
2017-11-05T13:22:23.070Z,34.83
2017-11-05T13:24:51.448Z,35.17
2017-11-05T13:27:19.821Z,37.22
2017-11-05T13:29:48.299Z,34.70
2017-11-05T13:32:15.866Z,35.30
2017-11-05T13:34:43.438Z,33.83
2017-11-05T13:37:11.776Z,35.45
2017-11-05T13:39:39.390Z,35.30
2017-11-05T13:42:07.134Z,35.25
2017-11-05T13:44:35.475Z,34.13
2017-11-05T13:47:03.086Z,32.15
2017-11-05T13:49:30.923Z,34.95
2017-11-05T13:51:58.603Z,32.95
2017-11-05T13:54:26.219Z,34.55
2017-11-05T13:56:53.829Z,35.55
2017-11-05T13:59:21.444Z,36.17
2017-11-05T14:01:49.142Z,34.38
2017-11-05T14:04:17.511Z,34.97
2017-11-05T14:06:45.908Z,35.22
2017-11-05T14:09:14.290Z,34.38
2017-11-05T14:11:41.930Z,34.72
2017-11-05T14:14:09.534Z,34.17
2017-11-05T14:16:37.298Z,34.85
2017-11-05T14:19:04.907Z,34.53
2017-11-05T14:21:32.550Z,34.63
2017-11-05T14:24:00.174Z,35.40
2017-11-05T14:26:27.796Z,33.65
2017-11-05T14:28:55.400Z,35.28
2017-11-05T14:31:22.970Z,32.97
2017-11-05T14:33:50.544Z,32.33
2017-11-05T14:36:18.158Z,33.03
2017-11-05T14:38:46.538Z,34.95
2017-11-05T14:41:14.164Z,33.10
2017-11-05T14:43:41.791Z,35.13
2017-11-05T14:46:09.436Z,35.80
2017-11-05T14:48:37.102Z,37.53
2017-11-05T14:51:04.779Z,37.03
2017-11-05T14:53:32.482Z,33.83
2017-11-05T14:56:00.109Z,34.92
2017-11-05T14:58:27.739Z,35.10
2017-11-05T15:00:56.130Z,33.10
2017-11-05T15:03:24.800Z,32.70
2017-11-05T15:05:53.241Z,35.40
2017-11-05T15:08:20.876Z,34.78
2017-11-05T15:10:48.498Z,35.20
2017-11-05T15:13:16.107Z,35.78
2017-11-05T15:15:43.738Z,34.92
2017-11-05T15:18:11.321Z,38.17
2017-11-05T15:20:38.956Z,36.88
2017-11-05T15:23:06.580Z,38.35
2017-11-05T15:25:34.176Z,42.15
2017-11-05T15:28:01.751Z,37.05
2017-11-05T15:30:29.409Z,41.10
2017-11-05T15:32:57.080Z,38.45
2017-11-05T15:35:24.734Z,37.65
2017-11-05T15:37:52.347Z,39.05
2017-11-05T15:40:20.026Z,38.35
2017-11-05T15:42:48.422Z,44.92
2017-11-05T15:45:16.026Z,39.47
2017-11-05T15:47:43.692Z,41.45
2017-11-05T15:50:11.402Z,41.88
2017-11-05T15:52:39.799Z,37.50
2017-11-05T15:55:07.481Z,37.35
2017-11-05T15:57:35.111Z,40.05
2017-11-05T16:00:02.788Z,37.67
2017-11-05T16:02:30.385Z,39.42
2017-11-05T16:04:58.002Z,41.03
2017-11-05T16:07:25.587Z,45.58
2017-11-05T16:09:53.195Z,41.28
2017-11-05T16:12:20.819Z,37.13
2017-11-05T16:14:48.392Z,40.45
2017-11-05T16:17:16.007Z,40.45
2017-11-05T16:19:43.592Z,43.55
2017-11-05T16:22:11.238Z,39.58
2017-11-05T16:24:38.851Z,38.15
2017-11-05T16:27:06.459Z,39.00
2017-11-05T16:29:34.115Z,36.80
2017-11-05T16:32:01.775Z,45.17
2017-11-05T16:34:29.400Z,42.65
2017-11-05T16:36:57.091Z,40.38
2017-11-05T16:39:25.713Z,39.47
2017-11-05T16:41:53.329Z,38.38
2017-11-05T16:44:20.943Z,38.47
2017-11-05T16:46:48.683Z,37.90
2017-11-05T16:49:16.299Z,39.97
2017-11-05T16:51:43.937Z,40.55
2017-11-05T16:54:11.553Z,53.30
2017-11-05T16:56:39.150Z,43.72
2017-11-05T16:59:06.763Z,38.17
2017-11-05T17:01:34.396Z,38.15
2017-11-05T17:04:02.167Z,37.65
2017-11-05T17:06:29.758Z,40.80
2017-11-05T17:08:57.426Z,39.92
2017-11-05T17:11:25.027Z,38.13
2017-11-05T17:13:52.654Z,39.15
2017-11-05T17:16:20.294Z,36.95
2017-11-05T17:18:47.882Z,39.03
2017-11-05T17:21:15.511Z,37.55
2017-11-05T17:23:43.134Z,37.53
2017-11-05T17:26:10.805Z,39.50
2017-11-05T17:28:38.626Z,38.00
2017-11-05T17:31:06.242Z,39.50
2017-11-05T17:33:33.930Z,37.55
2017-11-05T17:36:01.505Z,38.53
2017-11-05T17:38:29.159Z,39.45
2017-11-05T17:40:56.767Z,38.15
2017-11-05T17:43:24.389Z,39.05
2017-11-05T17:45:51.965Z,38.47
2017-11-05T17:48:19.580Z,40.65
2017-11-05T17:50:47.205Z,38.75
2017-11-05T17:53:14.778Z,42.22
2017-11-05T17:55:42.353Z,37.85
2017-11-05T17:58:09.963Z,41.40
2017-11-05T18:00:37.576Z,39.13
2017-11-05T18:03:05.159Z,40.65
2017-11-05T18:05:33.551Z,37.53
2017-11-05T18:08:01.174Z,39.60
2017-11-05T18:10:28.786Z,39.67
2017-11-05T18:12:56.400Z,40.00
2017-11-05T18:15:24.218Z,39.88
2017-11-05T18:17:52.078Z,40.92
2017-11-05T18:20:19.663Z,40.70
2017-11-05T18:22:47.470Z,39.55
2017-11-05T18:25:15.084Z,40.88
2017-11-05T18:27:42.661Z,41.75
2017-11-05T18:30:10.543Z,42.33
2017-11-05T18:32:38.173Z,41.40
2017-11-05T18:35:05.762Z,41.90
2017-11-05T18:37:33.378Z,41.42
2017-11-05T18:40:01.824Z,42.15
2017-11-05T18:42:29.454Z,41.47
2017-11-05T18:44:58.102Z,42.22
2017-11-05T18:47:25.834Z,41.30
2017-11-05T18:49:54.176Z,43.20
2017-11-05T18:52:21.783Z,42.92
2017-11-05T18:54:49.394Z,43.25
2017-11-05T18:57:17.486Z,42.97
2017-11-05T18:59:45.065Z,42.33
2017-11-05T19:02:12.682Z,45.25
2017-11-05T19:04:40.299Z,41.83
2017-11-05T19:07:07.923Z,43.28
2017-11-05T19:09:35.777Z,43.22
2017-11-05T19:12:03.410Z,40.35
2017-11-05T19:14:31.027Z,42.10
2017-11-05T19:16:58.603Z,42.90
2017-11-05T19:19:27.011Z,42.13
2017-11-05T19:21:54.890Z,40.95
2017-11-05T19:24:22.659Z,40.72
2017-11-05T19:26:50.251Z,42.55
2017-11-05T19:29:17.875Z,42.80
2017-11-05T19:31:45.487Z,40.97
2017-11-05T19:34:13.118Z,41.75
2017-11-05T19:36:40.698Z,41.63
2017-11-05T19:39:09.573Z,40.12
2017-11-05T19:41:37.184Z,39.88
2017-11-05T19:44:04.855Z,39.97
2017-11-05T19:46:32.430Z,40.85
2017-11-05T19:49:00.816Z,42.38
2017-11-05T19:51:28.454Z,45.50
2017-11-05T19:53:56.072Z,43.28
2017-11-05T19:56:23.707Z,44.05
2017-11-05T19:58:51.319Z,43.50
2017-11-05T20:01:19.705Z,41.33
2017-11-05T20:03:48.135Z,45.00
2017-11-05T20:06:15.792Z,42.75
2017-11-05T20:08:43.420Z,43.30
2017-11-05T20:11:11.049Z,41.67
2017-11-05T20:13:38.673Z,43.95
2017-11-05T20:16:06.287Z,42.17
2017-11-05T20:18:34.670Z,41.22
2017-11-05T20:21:03.055Z,43.25
2017-11-05T20:23:31.365Z,40.00
2017-11-05T20:25:58.987Z,41.55
2017-11-05T20:28:26.608Z,42.65
2017-11-05T20:30:54.246Z,43.03
2017-11-05T20:33:21.880Z,42.00
2017-11-05T20:35:50.225Z,41.55
2017-11-05T20:38:17.838Z,43.80
2017-11-05T20:40:45.719Z,43.60
2017-11-05T20:43:13.391Z,44.25
2017-11-05T20:45:40.963Z,44.35
2017-11-05T20:48:08.618Z,45.03
2017-11-05T20:50:36.275Z,43.78
2017-11-05T20:53:03.818Z,44.05
2017-11-05T20:55:31.717Z,44.10
2017-11-05T20:57:59.293Z,43.22
2017-11-05T21:00:27.071Z,43.00
2017-11-05T21:02:54.691Z,41.83
2017-11-05T21:05:22.310Z,40.97
2017-11-05T21:07:49.875Z,41.05
2017-11-05T21:10:17.508Z,36.78
2017-11-05T21:12:45.127Z,29.55
2017-11-05T21:15:12.698Z,16.23
2017-11-05T21:17:40.307Z,8.10
2017-11-05T21:20:07.945Z,6.22
2017-11-05T21:22:35.556Z,8.40
2017-11-05T21:25:03.167Z,3.97
2017-11-05T21:27:30.768Z,3.50
2017-11-05T21:29:58.376Z,2.72
2017-11-05T21:32:26.018Z,3.55
2017-11-05T21:34:53.625Z,2.45
2017-11-05T21:37:21.963Z,2.00
2017-11-05T21:39:49.524Z,3.00
2017-11-05T21:42:17.127Z,2.10
2017-11-05T21:44:45.503Z,1.50
2017-11-05T21:47:13.841Z,1.60
2017-11-05T21:49:41.443Z,0.95
2017-11-05T21:52:09.044Z,1.10
2017-11-05T21:54:36.670Z,1.10
2017-11-05T21:57:04.288Z,1.25
2017-11-05T21:59:31.899Z,1.00
2017-11-05T22:01:59.475Z,0.93
2017-11-05T22:04:27.323Z,1.17
2017-11-05T22:06:55.693Z,0.85
2017-11-05T22:09:24.114Z,0.90
2017-11-05T22:11:51.681Z,0.98
2017-11-05T22:14:19.294Z,0.98
2017-11-05T22:16:47.630Z,1.00
2017-11-05T22:19:15.235Z,0.90
2017-11-05T22:21:42.834Z,0.95
2017-11-05T22:24:11.175Z,0.70
2017-11-05T22:26:38.787Z,0.70
2017-11-05T22:29:06.386Z,0.70
2017-11-05T22:31:33.985Z,0.70
2017-11-05T22:34:01.513Z,0.70
2017-11-05T22:36:29.130Z,0.62
2017-11-05T22:38:56.730Z,0.65
2017-11-05T22:41:24.340Z,0.80
2017-11-05T22:43:51.904Z,0.80
2017-11-05T22:46:19.505Z,0.73
2017-11-05T22:48:47.115Z,1.12
2017-11-05T22:51:14.723Z,0.85
2017-11-05T22:53:42.334Z,1.30
2017-11-05T22:56:09.942Z,1.00
2017-11-05T22:58:37.546Z,1.10
2017-11-05T23:01:05.116Z,1.42
2017-11-05T23:03:32.682Z,0.90
2017-11-05T23:06:00.251Z,1.20
2017-11-05T23:08:27.857Z,1.17
2017-11-05T23:10:55.424Z,1.00
2017-11-05T23:13:23.790Z,1.40
2017-11-05T23:15:51.395Z,1.48
2017-11-05T23:18:19.001Z,1.17
2017-11-05T23:20:46.658Z,0.98
2017-11-05T23:23:14.277Z,1.15
2017-11-05T23:25:41.881Z,1.05
2017-11-05T23:28:09.494Z,1.00
2017-11-05T23:30:37.105Z,1.10
2017-11-05T23:33:04.668Z,1.10
2017-11-05T23:35:32.280Z,1.15
2017-11-05T23:37:59.891Z,1.20
2017-11-05T23:40:27.498Z,1.30
2017-11-05T23:42:55.113Z,1.40
2017-11-05T23:45:22.725Z,1.35
2017-11-05T23:47:50.330Z,1.55
2017-11-05T23:50:17.935Z,1.10
2017-11-05T23:52:45.543Z,1.50
2017-11-05T23:55:13.147Z,1.50
2017-11-05T23:57:40.759Z,1.60
